الصفحة الرئيسية
METAR-TAF:

METAR-TAF

مطار :

Rodrigues, موريشيوس

دائرة عرض: 19-41S, خط طول: 063-25E, ارتفاع: 58 متر

METAR: مفقودة

زمن: 23:11 (19:11 UTC)

توقعات

تاريخ ووقت الإصدار 2ساعات و 6 دقيقة قبل الساعة 17:05UTC
التوقعات صالحة من05 الساعة 18 UTC إلى 06 الساعة 12 UTC
ريح 20 عقدة من الشرق/الجنوب الشرقي تتزايد حتى 30 عقدة
الرؤية 10 كم أو أكثر
غيوم مفككة على ارتفاع 1700 قدم
نظرية الاحتمالات 30% :
مؤقت
من 05 الساعة 18 UTC إلى 06 الساعة 03 UTC
الرؤية: 7000 متر
غيوم مفككة على ارتفاع 1600 قدم
زخات من الأمطار الخفيفة

TAF: FIMR 051705Z 0518/0612 11020G30KT 9999 BKN017 PROB30 TEMPO 0518/0603 7000 -SHRA BKN016

أرصاد الطقس والتوقعات من أكثر من 4000 مطار (تقارير الطقس للمطار METAR والتنبؤ بالطقس بالمطارTAF).

المحطات المتاحة هي النقط الصفراء والحمراء على الخريطة.

حرك المؤشر فوق النقطة لمعرفة اسم المحطة.

ثم انقر لمعرفة أرصاد وتوقعات الطقس.

لتغيير الخارطة: اضغط على الأزرار الخضراء مع رمز الصليب الأسود للتكبير. على الزر الأخضر مع شرطة للتصغير، أو على الأسهم الخضراء للخرائط المجاورة.


METAR-TAF: